Flight Track Log - Related Links

Times and Time Zones

All times are in EST time to prevent confusion due to time zone crossing. See the CMP251 flight status page for this flight to view local times or setup timezone preferences in your user account.

Time Position Orientation Groundspeed Altitude Reporting Facility
EST Latitude Longitude Course Direction KTS MPH feet Rate Location/Type
Sun 12:05:24 PM 9.0610 -79.3850 28° Northeast 155 178  Level FlightAware ADS-B
Sun 12:05:54 PM 9.0820 -79.3720 31° Northeast 178 205 900 1,909 Climbing FlightAware ADS-B
Sun 12:06:30 PM 9.0870 -79.3410 81° East 192 221 2,100 2,211 Climbing FlightAware ADS-B
Sun 12:07:10 PM 9.0910 -79.3050 84° East 199 229 3,700 1,765 Climbing FlightAware ADS-B
Sun 12:07:38 PM 9.0920 -79.2790 88° East 240 276 4,100 1,322 Climbing FlightAware ADS-B
Sun 12:08:09 PM 9.0910 -79.2420 92° East 271 312 5,000 1,636 Climbing FlightAware ADS-B
Sun 12:08:55 PM 9.1120 -79.1810 71° East 285 328 6,200 2,289 Climbing FlightAware ADS-B
Sun 12:09:25 PM 9.1270 -79.1440 68° East 274 315 7,900 3,000 Climbing FlightAware ADS-B
Sun 12:09:51 PM 9.1390 -79.1140 68° East 279 321 9,000 2,273 Climbing FlightAware ADS-B
Sun 12:10:31 PM 9.1610 -79.0620 67° East 300 345 10,400 1,700 Climbing FlightAware ADS-B
Sun 12:10:51 PM 9.1720 -79.0370 66° East 324 373 10,700 636 Climbing FlightAware ADS-B
Sun 12:11:37 PM 9.1990 -78.9730 67° East 343 395 11,100 2,000 Climbing FlightAware ADS-B
Sun 12:12:12 PM 9.2210 -78.9090 71° East 369 425 13,400 2,880 Climbing FlightAware ADS-B
Sun 12:12:52 PM 9.2340 -78.8390 79° East 385 443 14,700 2,163 Climbing FlightAware ADS-B
Sun 12:13:38 PM 9.2380 -78.7570 87° East 391 450 16,500 2,338 Climbing FlightAware ADS-B
Sun 12:14:09 PM 9.2310 -78.7040 98° East 393 452 17,700 2,164 Climbing FlightAware ADS-B
Sun 12:14:39 PM 9.2230 -78.6530 99° East 398 458 18,700 1,973 Climbing FlightAware ADS-B
Sun 12:15:22 PM 9.2090 -78.5630 99° East 417 480 20,100 1,807 Climbing FlightAware ADS-B
Sun 12:16:02 PM 9.1960 -78.4840 99° East 429 494 21,200 1,792 Climbing FlightAware ADS-B
Sun 12:16:39 PM 9.1850 -78.4170 99° East 431 496 22,400 1,900 Climbing FlightAware ADS-B
Sun 12:17:02 PM 9.1770 -78.3650 99° East 436 502 23,100 1,729 Climbing FlightAware ADS-B
Sun 12:17:38 PM 9.1650 -78.2920 99° East 444 511 24,100 769 Climbing FlightAware ADS-B
Sun 12:18:20 PM 9.1550 -78.2190 98° East 444 511 24,100 1,658 Level FlightAware ADS-B
Sun 12:18:54 PM 9.1400 -78.1380 101° East 450 518 26,200 2,429 Climbing FlightAware ADS-B
Sun 12:19:44 PM 9.1230 -78.0320 99° East 455 524 27,500 1,481 Climbing FlightAware ADS-B
Sun 12:20:15 PM 9.1120 -77.9650 99° East 461 531 28,200 1,292 Climbing FlightAware ADS-B
Sun 12:20:49 PM 9.0990 -77.8900 100° East 466 536 28,900 1,313 Climbing FlightAware ADS-B
Sun 12:21:19 PM 9.0890 -77.8260 99° East 468 539 29,600 1,385 Climbing FlightAware ADS-B
Sun 12:21:54 PM 9.0770 -77.7520 99° East 468 539 30,400 1,867 Climbing FlightAware ADS-B
Sun 12:22:49 PM 9.0580 -77.6350 99° East 450 518 32,400 2,067 Climbing FlightAware ADS-B
Sun 12:23:24 PM 9.0460 -77.5620 99° East 442 509 33,500 1,440 Climbing FlightAware ADS-B
Sun 12:24:04 PM 9.0320 -77.4810 100° East 443 510 34,200 1,029 Climbing FlightAware ADS-B
Sun 12:24:34 PM 9.0250 -77.4190 97° East 447 514 34,700 960 Climbing FlightAware ADS-B
Sun 12:25:19 PM 9.0320 -77.3250 86° East 456 525 35,400 1,120 Climbing FlightAware ADS-B
Sun 12:25:49 PM 9.0380 -77.2610 85° East 453 521 36,100 1,300 Climbing FlightAware ADS-B
Sun 12:26:19 PM 9.0450 -77.2010 83° East 448 516 36,700 771 Climbing FlightAware ADS-B
Sun 12:26:59 PM 9.0540 -77.1160 84° East 446 513 37,000 240 Climbing FlightAware ADS-B
Sun 12:27:34 PM 9.0610 -77.0470 84° East 444 511 37,000  Level FlightAware ADS-B
Sun 12:28:24 PM 9.0720 -76.9430 84° East 443 510 37,000  Level FlightAware ADS-B
Sun 12:28:49 PM 9.0780 -76.8880 84° East 443 510 37,000  Level FlightAware ADS-B
Sun 12:29:24 PM 9.0850 -76.8160 84° East 443 510 37,000  Level FlightAware ADS-B
Sun 12:29:54 PM 9.0920 -76.7550 83° East 443 510 37,000  Level FlightAware ADS-B
Sun 12:30:29 PM 9.0990 -76.6850 84° East 443 510 37,000 92 Level FlightAware ADS-B
Sun 12:30:59 PM 9.1060 -76.6210 84° East 443 510 37,100 600 Climbing FlightAware ADS-B
Sun 12:31:39 PM 9.1140 -76.5400 84° East 442 509 37,700 646 Climbing FlightAware ADS-B
Sun 12:32:04 PM 9.1200 -76.4870 83° East 446 513 37,800 78 Climbing FlightAware ADS-B
Sun 12:32:56 PM 9.1290 -76.3950 84° East 446 513 37,800  Level FlightAware ADS-B
Sun 12:33:33 PM 9.1360 -76.3300 84° East 446 513 37,800 152 Level FlightAware ADS-B
Sun 12:34:15 PM 9.1470 -76.2260 84° East 460 529 38,000 148 Climbing FlightAware ADS-B
Sun 12:34:54 PM 9.1550 -76.1400 85° East 444 511 38,000  Level FlightAware ADS-B
Sun 12:35:59 PM 9.1700 -76.0040 84° East 443 510 38,000  Level FlightAware ADS-B
Sun 12:37:00 PM 9.1830 -75.8810 84° East 439 505 38,000  Level FlightAware ADS-B
Sun 12:37:39 PM 9.1910 -75.7990 84° East 436 502 38,000  Level FlightAware ADS-B
Sun 12:38:09 PM 9.1970 -75.7410 84° East 435 501 38,000  Level FlightAware ADS-B
Sun 12:38:34 PM 9.2020 -75.6900 84° East 433 498 38,000  Level FlightAware ADS-B
Sun 12:39:50 PM 9.2180 -75.5390 84° East 431 496 38,000  Level FlightAware ADS-B
Sun 12:40:25 PM 9.2250 -75.4660 84° East 430 495 38,000  Level FlightAware ADS-B
Sun 12:41:05 PM 9.2330 -75.3870 84° East 430 495 38,000  Level FlightAware ADS-B
Sun 12:41:34 PM 9.2390 -75.3280 84° East 429 494 38,000  Level FlightAware ADS-B
Sun 12:42:25 PM 9.2490 -75.2260 84° East 429 494 38,000  Level FlightAware ADS-B
Sun 12:43:04 PM 9.2560 -75.1550 84° East 429 494 38,000  Level FlightAware ADS-B
Sun 12:43:39 PM 9.2640 -75.0820 84° East 430 495 38,000  Level FlightAware ADS-B
Sun 12:44:14 PM 9.2710 -75.0110 84° East 431 496 38,000  Level FlightAware ADS-B
Sun 12:44:54 PM 9.2790 -74.9290 84° East 431 496 38,000  Level FlightAware ADS-B
Sun 12:45:34 PM 9.2870 -74.8480 84° East 432 497 38,000  Level FlightAware ADS-B
Sun 12:46:04 PM 9.2960 -74.7860 82° East 433 498 38,000  Level FlightAware ADS-B
Sun 12:46:34 PM 9.3050 -74.7260 81° East 432 497 38,000  Level FlightAware ADS-B
Sun 12:47:21 PM 9.3180 -74.6370 82° East 432 497 38,000  Level FlightAware ADS-B
Sun 12:47:59 PM 9.3300 -74.5570 81° East 430 495 38,000  Level FlightAware ADS-B
Sun 12:48:29 PM 9.3370 -74.5040 82° East 430 495 38,000  Level FlightAware ADS-B
Sun 12:49:04 PM 9.3480 -74.4270 82° East 429 494 38,000  Level FlightAware ADS-B
Sun 12:49:39 PM 9.3580 -74.3590 82° East 429 494 38,000  Level FlightAware ADS-B
Sun 12:50:09 PM 9.3670 -74.2990 81° East 429 494 38,000  Level FlightAware ADS-B
Sun 12:50:52 PM 9.3790 -74.2180 81° East 431 496 38,000  Level FlightAware ADS-B
Sun 12:51:24 PM 9.3890 -74.1480 82° East 430 495 38,000  Level FlightAware ADS-B
Sun 12:52:44 PM 9.4120 -73.9890 82° East 431 496 38,000  Level FlightAware ADS-B
Sun 12:53:14 PM 9.4190 -73.9370 82° East 431 496 38,000  Level FlightAware ADS-B
Sun 12:53:44 PM 9.4280 -73.8750 82° East 433 498 38,000  Level FlightAware ADS-B
Sun 12:54:29 PM 9.4410 -73.7870 81° East 434 499 38,000  Level FlightAware ADS-B
Sun 12:54:59 PM 9.4500 -73.7180 82° East 436 502 38,000  Level FlightAware ADS-B
Sun 12:55:44 PM 9.4630 -73.6270 82° East 437 503 38,000  Level FlightAware ADS-B
Sun 12:56:29 PM 9.4750 -73.5450 82° East 437 503 38,000  Level FlightAware ADS-B
Sun 12:56:54 PM 9.4820 -73.4940 82° East 436 502 38,000  Level FlightAware ADS-B
Sun 12:57:54 PM 9.5010 -73.3650 81° East 436 502 38,000  Level FlightAware ADS-B
Sun 12:58:24 PM 9.5080 -73.3120 82° East 436 502 38,000  Level FlightAware ADS-B
Sun 12:59:04 PM 9.5200 -73.2230 82° East 436 502 38,000 -320 Level FlightAware ADS-B
Sun 12:59:39 PM 9.5300 -73.1560 81° East 431 496 37,600 -750 Descending FlightAware ADS-B
Sun 01:00:24 PM 9.5430 -73.0640 82° East 424 488 37,000 -444 Descending FlightAware ADS-B
Sun 01:01:00 PM 9.5540 -72.9940 81° East 434 499 37,000  Level FlightAware ADS-B
Sun 01:01:44 PM 9.5670 -72.9050 82° East 435 501 37,000  Level FlightAware ADS-B
Sun 01:02:14 PM 9.5760 -72.8430 82° East 436 502 37,000  Level FlightAware ADS-B
Sun 01:02:54 PM 9.5870 -72.7620 82° East 436 502 37,000  Level FlightAware ADS-B
Sun 01:03:34 PM 9.5990 -72.6860 81° East 436 502 37,000  Level FlightAware ADS-B
Sun 01:04:14 PM 9.6100 -72.6060 82° East 435 501 37,000  Level FlightAware ADS-B
Sun 01:04:56 PM 9.6220 -72.5220 82° East 435 501 37,000  Level FlightAware ADS-B
Sun 01:05:25 PM 9.6300 -72.4680 81° East 436 502 37,000  Level FlightAware ADS-B
Sun 01:06:15 PM 9.6460 -72.3600 81° East 437 503 37,000  Level FlightAware ADS-B
Sun 01:07:07 PM 9.6580 -72.2700 82° East 437 503 37,000  Level FlightAware ADS-B
Sun 01:07:43 PM 9.6670 -72.2080 82° East 437 503 37,000  Level FlightAware ADS-B
Sun 01:08:07 PM 9.6730 -72.1670 82° East 437 503 37,000  Level FlightAware ADS-B
Sun 01:08:42 PM 9.6810 -72.1060 82° East 437 503 37,000  Level FlightAware ADS-B
Sun 01:09:30 PM 9.6930 -72.0230 82° East 437 503 37,000  Level FlightAware ADS-B
Sun 01:10:18 PM 9.7040 -71.9400 82° East 437 503 37,000  Level FlightAware ADS-B
Sun 01:10:42 PM 9.7100 -71.8990 82° East 437 503 37,000  Level FlightAware ADS-B
Sun 01:11:34 PM 9.7220 -71.8090 82° East 437 503 37,000  Level FlightAware ADS-B
Sun 01:12:20 PM 9.7330 -71.7300 82° East 437 503 37,000  Level FlightAware ADS-B
Sun 01:12:57 PM 9.7420 -71.6660 82° East 437 503 37,000  Level FlightAware ADS-B
Sun 01:13:23 PM 9.7480 -71.6210 82° East 437 503 37,000  Level FlightAware ADS-B
Sun 01:14:36 PM 9.7660 -71.4950 82° East 437 503 37,000  Level FlightAware ADS-B
Sun 01:15:12 PM 9.7740 -71.4330 83° East 437 503 37,000  Level FlightAware ADS-B
Sun 01:16:23 PM 9.8050 -71.1390 84° East 432 497 37,000  Level FlightAware ADS-B
Sun 01:17:13 PM 9.8190 -71.0390 82° East 430 495 37,000  Level FlightAware ADS-B
Sun 01:17:48 PM 9.8270 -70.9770 83° East 430 495 37,000  Level FlightAware ADS-B
Sun 01:18:22 PM 9.8370 -70.8990 83° East 429 494 37,000  Level FlightAware ADS-B
Sun 01:18:53 PM 9.8460 -70.8380 81° East 427 491 37,000  Level FlightAware ADS-B
Sun 01:20:08 PM 9.8650 -70.6980 82° East 424 488 37,000  Level FlightAware ADS-B
Sun 01:20:45 PM 9.8730 -70.6290 83° East 424 488 37,000  Level FlightAware ADS-B
Sun 01:21:23 PM 9.8850 -70.5470 82° East 427 491 37,000  Level FlightAware ADS-B
Sun 01:22:09 PM 9.8980 -70.4510 82° East 428 493 37,000  Level FlightAware ADS-B
Sun 01:22:53 PM 9.9100 -70.3600 82° East 429 494 37,000  Level FlightAware ADS-B
Sun 01:23:29 PM 9.9190 -70.2910 82° East 430 495 37,000  Level FlightAware ADS-B
Sun 01:24:49 PM 9.9400 -70.1300 82° East 428 493 37,000  Level FlightAware ADS-B
Sun 01:25:18 PM 9.9480 -70.0720 82° East 427 491 37,000  Level FlightAware ADS-B
Sun 01:25:59 PM 9.9590 -69.9910 82° East 428 493 37,000  Level FlightAware ADS-B
Sun 01:26:34 PM 9.9670 -69.9270 83° East 429 494 37,000 -507 Level FlightAware ADS-B
Sun 01:27:10 PM 9.9780 -69.8480 82° East 428 493 36,400 -2,492 Descending FlightAware ADS-B
Sun 01:27:39 PM 9.9850 -69.7880 83° East 451 519 34,300 -3,577 Descending FlightAware ADS-B
Sun 01:28:54 PM 10.0070 -69.6280 82° East 464 534 30,200 -2,660 Descending FlightAware ADS-B
Sun 01:29:25 PM 10.0150 -69.5650 83° East 441 507 29,600 -1,200 Descending FlightAware ADS-B
Sun 01:29:59 PM 10.0240 -69.4950 83° East 420 483 28,900 -1,200 Descending FlightAware ADS-B
Sun 01:30:35 PM 10.0320 -69.4280 83° East 400 460 28,200 -1,114 Descending FlightAware ADS-B
Sun 01:31:09 PM 10.0410 -69.3650 82° East 386 444 27,600 -1,120 Descending FlightAware ADS-B
Sun 01:31:50 PM 10.0440 -69.2930 88° East 376 433 26,800 -1,500 Descending FlightAware ADS-B
Sun 01:32:29 PM 10.0460 -69.2250 88° East 372 428 25,600 -1,733 Descending FlightAware ADS-B
Sun 01:33:20 PM 10.0480 -69.1390 89° East 368 423 24,200 -1,735 Descending FlightAware ADS-B
Sun 01:33:52 PM 10.0500 -69.0820 88° East 366 421 23,200 -1,829 Descending FlightAware ADS-B
Sun 01:34:42 PM 10.0460 -68.9950 93° East 363 418 21,700 -1,820 Descending FlightAware ADS-B
Sun 01:35:21 PM 10.0430 -68.9280 93° East 361 415 20,500 -1,840 Descending FlightAware ADS-B
Sun 01:35:57 PM 10.0400 -68.8670 93° East 360 414 19,400 -1,135 Descending FlightAware ADS-B
Sun 01:36:35 PM 10.0380 -68.8110 92° East 359 413 19,100 -1,748 Descending FlightAware ADS-B
Sun 01:37:40 PM 10.0330 -68.6960 93° East 349 402 16,400 -2,167 Descending FlightAware ADS-B
Sun 01:38:23 PM 10.0290 -68.6260 93° East 343 395 15,200 -1,643 Descending FlightAware ADS-B
Sun 01:39:04 PM 10.0260 -68.5600 93° East 338 389 14,100 -1,579 Descending FlightAware ADS-B
Sun 01:39:39 PM 10.0260 -68.5440 90° East 335 386 13,200 -1,558 Descending FlightAware ADS-B
Sun 01:40:21 PM 10.0210 -68.4480 93° East 325 374 12,100 -1,667 Descending FlightAware ADS-B
Sun 01:40:51 PM 10.0190 -68.3980 92° East 320 368 11,200 -1,662 Descending FlightAware ADS-B
Sun 01:41:26 PM 10.0170 -68.3460 92° East 306 352 10,300 -1,268 Descending FlightAware ADS-B
Sun 01:42:02 PM 10.0150 -68.2970 92° East 291 335 9,700 -1,154 Descending FlightAware ADS-B
Sun 01:42:18 PM 10.0140 -68.2740 93° East 289 333 9,300 -1,594 Descending FlightAware ADS-B
Sun 01:43:06 PM 10.0520 -68.2250 52° Northeast 284 327 8,000 -1,319 Descending FlightAware ADS-B
Sun 01:43:49 PM 10.0930 -68.1910 39° Northeast 261 300 7,300 -822 Descending FlightAware ADS-B
Sun 01:44:19 PM 10.1190 -68.1700 38° Northeast 243 280 7,000 -1,125 Descending FlightAware ADS-B
Sun 01:44:53 PM 10.1500 -68.1450 38° Northeast 231 266 6,100 -1,537 Descending FlightAware ADS-B
Sun 01:45:41 PM 10.1580 -68.0970 80° East 213 245 4,900 -1,357 Descending FlightAware ADS-B
Sun 01:46:17 PM 10.1560 -68.0650 94° East 201 231 4,200 -1,183 Descending FlightAware ADS-B
Sun 01:46:52 PM 10.1550 -68.0320 92° East 186 214 3,500 -1,200 Descending FlightAware ADS-B
Sun 01:47:22 PM 10.1540 -68.0070 92° East 178 205 2,900 -655 Descending FlightAware ADS-B
Sun 01:47:47 PM 10.1530 -67.9890 93° East 178 205 2,900  Level FlightAware ADS-B
Sun 01:50:00 PM 10.1497 -67.9284 93° East  Level Estimated
Sun 01:51:00 PM 10.1497 -67.9284 North  Level Estimated
Sun 01:52:00 PM 10.1497 -67.9284 North  Level Estimated
Sun 01:53:00 PM 10.1497 -67.9284 North  Level Estimated
Sun 01:54:00 PM 10.1497 -67.9284 North  Level Estimated
Sun 01:55:00 PM 10.1497 -67.9284 North  Level Estimated
Sun 01:56:00 PM 10.1497 -67.9284 North  Level Estimated
Sun 01:57:00 PM 10.1497 -67.9284 North  Level Estimated
Sun 01:58:00 PM 10.1497 -67.9284 North  Level Estimated
Sun 01:59:00 PM 10.1497 -67.9284 North  Level Estimated
Sun 02:00:00 PM 10.1497 -67.9284 North  Level Estimated
Sun 02:01:00 PM 10.1497 -67.9284 North  Level Estimated
Sun 02:02:00 PM 10.1497 -67.9284 North  Level Estimated
Sun 02:03:00 PM 10.1497 -67.9284 North  Level Estimated
Sun 02:04:00 PM 10.1497 -67.9284 North  Level Estimated
Sun 02:05:00 PM 10.1497 -67.9284 North  Level Estimated
Sun 02:06:00 PM 10.1497 -67.9284 North  Level Estimated
Sun 02:07:00 PM 10.1497 -67.9284 North  Level Estimated
Sun 02:08:00 PM 10.1497 -67.9284 North  Level Estimated
Sun 02:09:00 PM 10.1497 -67.9284 North  Level Estimated

Login

Don't have an account? Register now (free) for customized features, flight alerts, and more!